Time;durP1;ratioP1;P1;durP2;ratioP2;P2;SDS_P1;SDS_P2;PMS_P1;PMS_P2;Temp;Humidity;BMP_temperature;BMP_pressure;BME280_temperature;BME280_humidity;BME280_pressure;Samples;Min_cycle;Max_cycle;Signal;HPM_P1;HPM_P2
2022/03/19 00:00:35;;;;;;;60.60;33.95;;;;;;;-2.07;66.76;101442.41;2081784;28;20207;-70
2022/03/19 00:01:42;;;;;;;60.17;33.10;;;;;;;-2.05;67.00;101453.50;2074344;28;20215;-71
2022/03/19 00:02:44;;;;;;;58.67;34.15;;;;;;;-2.06;66.15;101448.44;2073569;28;20200;-70
2022/03/19 00:03:51;;;;;;;66.85;35.45;;;;;;;-2.07;66.58;101454.66;2073772;28;20204;-71
2022/03/19 00:04:55;;;;;;;59.03;33.83;;;;;;;-2.09;66.51;101453.97;2073866;28;20254;-72
2022/03/19 00:05:58;;;;;;;60.97;33.33;;;;;;;-2.11;66.63;101442.84;2073871;28;20199;-71
2022/03/19 00:07:05;;;;;;;58.40;32.63;;;;;;;-2.12;67.39;101449.88;2081099;28;20273;-72
2022/03/19 00:08:07;;;;;;;59.72;34.00;;;;;;;-2.16;67.17;101434.66;2081107;28;20210;-72
2022/03/19 00:09:10;;;;;;;61.42;34.58;;;;;;;-2.14;67.94;101443.16;2081360;28;20253;-71
2022/03/19 00:10:13;;;;;;;65.40;35.10;;;;;;;-2.14;67.63;101440.53;2081505;28;20669;-72
2022/03/19 00:11:16;;;;;;;58.53;34.83;;;;;;;-2.17;68.24;101438.22;2082143;28;20304;-72
2022/03/19 00:12:21;;;;;;;64.03;34.50;;;;;;;-2.18;68.82;101445.25;2081593;28;20579;-71
2022/03/19 00:13:25;;;;;;;64.82;35.38;;;;;;;-2.20;68.36;101438.53;2074224;28;20235;-71
2022/03/19 00:14:33;;;;;;;69.65;35.25;;;;;;;-2.20;68.96;101441.16;2073704;28;20211;-71
2022/03/19 00:15:38;;;;;;;66.97;36.20;;;;;;;-2.22;68.87;101436.09;2081668;28;20179;-71
2022/03/19 00:16:45;;;;;;;59.28;34.67;;;;;;;-2.23;69.43;101431.00;2081953;28;20187;-71
2022/03/19 00:17:49;;;;;;;70.47;35.80;;;;;;;-2.26;69.64;101434.72;2081283;28;20219;-71
2022/03/19 00:18:55;;;;;;;60.88;35.15;;;;;;;-2.29;70.02;101430.63;2081361;28;20203;-71
2022/03/19 00:20:00;;;;;;;66.43;36.30;;;;;;;-2.31;69.83;101434.38;2081102;28;20366;-72
2022/03/19 00:21:05;;;;;;;65.38;35.92;;;;;;;-2.34;70.85;101426.88;2080904;28;20242;-72
2022/03/19 00:22:10;;;;;;;63.13;35.58;;;;;;;-2.39;70.63;101427.31;2081246;28;20204;-71
2022/03/19 00:23:12;;;;;;;71.40;36.35;;;;;;;-2.43;71.05;101431.22;2081602;28;20304;-71
2022/03/19 00:24:17;;;;;;;67.72;37.58;;;;;;;-2.45;72.16;101433.13;2081282;28;20211;-71
2022/03/19 00:25:24;;;;;;;77.43;37.97;;;;;;;-2.50;72.63;101432.78;2081414;28;20187;-71
2022/03/19 00:26:33;;;;;;;79.95;38.75;;;;;;;-2.53;72.81;101429.66;2081515;28;20249;-72
2022/03/19 00:27:41;;;;;;;72.88;38.08;;;;;;;-2.58;73.60;101427.50;2081543;28;20199;-72
2022/03/19 00:28:49;;;;;;;78.43;40.17;;;;;;;-2.59;73.50;101429.28;2074493;28;20201;-71
2022/03/19 00:29:55;;;;;;;83.63;42.58;;;;;;;-2.61;74.01;101428.63;2081434;28;20195;-71
2022/03/19 00:31:01;;;;;;;80.60;42.13;;;;;;;-2.63;74.34;101427.94;2082117;28;20219;-71
2022/03/19 00:32:09;;;;;;;79.32;42.25;;;;;;;-2.65;73.88;101435.13;2081244;28;20298;-72
2022/03/19 00:33:15;;;;;;;82.15;43.20;;;;;;;-2.64;74.25;101435.94;2081297;28;20208;-72
2022/03/19 00:34:22;;;;;;;88.38;42.03;;;;;;;-2.65;74.22;101432.50;2081840;28;20219;-71
2022/03/19 00:35:25;;;;;;;86.63;42.10;;;;;;;-2.67;74.47;101431.03;2081871;28;20192;-72
2022/03/19 00:36:27;;;;;;;80.82;42.97;;;;;;;-2.69;75.07;101436.41;2080705;28;20219;-71
2022/03/19 00:37:30;;;;;;;87.22;42.13;;;;;;;-2.71;75.36;101432.28;2081280;28;20647;-71
2022/03/19 00:38:32;;;;;;;89.10;43.53;;;;;;;-2.69;74.88;101432.97;2081154;28;20205;-71
2022/03/19 00:39:37;;;;;;;86.35;42.88;;;;;;;-2.72;75.30;101435.88;2073129;28;20211;-71
2022/03/19 00:40:45;;;;;;;90.20;42.70;;;;;;;-2.71;75.66;101435.72;2073685;28;20192;-71
2022/03/19 00:41:47;;;;;;;84.63;43.45;;;;;;;-2.69;75.08;101432.97;2074247;28;20204;-71
2022/03/19 00:42:54;;;;;;;85.50;43.83;;;;;;;-2.72;75.48;101438.47;2081552;28;20733;-72
2022/03/19 00:43:56;;;;;;;88.65;43.85;;;;;;;-2.72;75.55;101431.47;2075125;28;20282;-72
2022/03/19 00:44:58;;;;;;;83.13;42.47;;;;;;;-2.72;76.17;101433.25;2074732;28;20204;-72
2022/03/19 00:46:01;;;;;;;94.60;42.17;;;;;;;-2.75;76.42;101430.94;2082825;28;20198;-71
2022/03/19 00:47:13;;;;;;;87.95;42.30;;;;;;;-2.78;76.63;101420.78;2082826;28;20293;-72
2022/03/19 00:48:18;;;;;;;82.80;42.55;;;;;;;-2.80;76.94;101425.34;2082984;28;20196;-72
2022/03/19 00:49:28;;;;;;;82.88;41.78;;;;;;;-2.84;77.47;101427.44;2083372;28;20196;-71
2022/03/19 00:50:35;;;;;;;92.97;43.63;;;;;;;-2.89;77.91;101424.47;2083496;28;20195;-72
2022/03/19 00:51:39;;;;;;;84.10;42.10;;;;;;;-2.92;78.41;101417.75;2082404;28;20620;-71
2022/03/19 00:52:43;;;;;;;84.50;42.10;;;;;;;-2.95;79.54;101423.28;2074974;28;20215;-71
2022/03/19 00:53:55;;;;;;;83.03;41.53;;;;;;;-2.97;79.63;101417.38;2082920;28;20219;-71
2022/03/19 00:54:57;;;;;;;87.97;43.40;;;;;;;-2.99;80.27;101414.09;2082660;28;20224;-72
2022/03/19 00:56:05;;;;;;;85.50;41.38;;;;;;;-3.01;80.22;101413.44;2075125;28;20291;-72
2022/03/19 00:57:10;;;;;;;82.82;42.88;;;;;;;-3.03;80.44;101415.38;2075625;28;20232;-71
2022/03/19 00:58:14;;;;;;;87.68;43.60;;;;;;;-3.04;81.04;101408.50;2082964;28;20286;-71
2022/03/19 00:59:17;;;;;;;87.65;42.85;;;;;;;-3.03;81.28;101404.94;2083632;28;20587;-72
2022/03/19 01:00:25;;;;;;;89.15;44.10;;;;;;;-3.03;81.58;101409.34;2083037;28;20270;-71
2022/03/19 01:01:32;;;;;;;85.90;42.10;;;;;;;-3.02;81.65;101403.97;2082852;28;20195;-71
2022/03/19 01:02:41;;;;;;;84.80;42.28;;;;;;;-3.02;81.68;101405.75;2083344;28;20253;-71
2022/03/19 01:03:48;;;;;;;92.22;43.60;;;;;;;-3.02;81.41;101403.97;2082580;28;20199;-71
2022/03/19 01:04:56;;;;;;;85.53;44.00;;;;;;;-3.03;81.59;101402.31;2082787;28;20211;-71
2022/03/19 01:05:57;;;;;;;85.78;42.58;;;;;;;-3.06;81.95;101399.97;2082862;28;20271;-71
2022/03/19 01:07:03;;;;;;;97.25;44.63;;;;;;;-3.07;82.46;101398.34;2082668;28;20245;-71
2022/03/19 01:08:12;;;;;;;93.60;44.25;;;;;;;-3.09;83.08;101399.47;2075431;28;20651;-71
2022/03/19 01:09:16;;;;;;;91.15;44.15;;;;;;;-3.13;83.30;101398.94;2082711;28;20219;-71
2022/03/19 01:10:27;;;;;;;83.63;43.20;;;;;;;-3.15;83.02;101403.50;2082686;28;20191;-72
2022/03/19 01:11:34;;;;;;;84.70;43.70;;;;;;;-3.16;83.34;101399.25;2082527;28;20203;-72
2022/03/19 01:12:38;;;;;;;93.05;43.53;;;;;;;-3.15;83.99;101398.28;2083061;28;20186;-71
2022/03/19 01:13:40;;;;;;;85.78;42.35;;;;;;;-3.16;84.28;101399.25;2083258;28;20222;-72
2022/03/19 01:14:42;;;;;;;87.88;42.67;;;;;;;-3.15;84.31;101395.66;2083288;28;20184;-71
2022/03/19 01:15:48;;;;;;;94.43;44.38;;;;;;;-3.18;84.11;101393.34;2082557;28;20248;-71
2022/03/19 01:16:57;;;;;;;90.57;43.30;;;;;;;-3.18;84.28;101396.78;2082230;28;20199;-69
2022/03/19 01:18:03;;;;;;;88.28;44.15;;;;;;;-3.20;84.47;101393.50;2083082;28;20219;-71
2022/03/19 01:19:13;;;;;;;76.25;42.17;;;;;;;-3.22;85.09;101392.81;2082823;28;20219;-71
2022/03/19 01:20:16;;;;;;;90.85;43.25;;;;;;;-3.25;85.30;101390.50;2082623;28;20196;-71
2022/03/19 01:21:20;;;;;;;89.45;44.58;;;;;;;-3.26;85.56;101403.72;2082745;28;20585;-71
2022/03/19 01:22:26;;;;;;;81.43;41.92;;;;;;;-3.28;86.19;101400.44;2082464;28;20204;-71
2022/03/19 01:23:33;;;;;;;86.45;42.45;;;;;;;-3.29;86.40;101398.81;2074957;28;20223;-71
2022/03/19 01:24:36;;;;;;;87.22;43.50;;;;;;;-3.29;86.22;101404.03;2074995;28;20295;-72
2022/03/19 01:25:43;;;;;;;82.03;42.35;;;;;;;-3.31;86.45;101400.72;2074831;28;20207;-71
2022/03/19 01:26:46;;;;;;;88.00;41.88;;;;;;;-3.33;86.67;101398.25;2082850;28;20187;-71
2022/03/19 01:27:51;;;;;;;77.05;40.58;;;;;;;-3.32;86.00;101401.69;2083200;28;20196;-71
2022/03/19 01:28:56;;;;;;;82.63;42.47;;;;;;;-3.32;85.94;101399.06;2082431;28;20210;-72
2022/03/19 01:30:02;;;;;;;88.40;41.97;;;;;;;-3.29;85.86;101398.81;2082404;28;20666;-71
2022/03/19 01:31:09;;;;;;;84.82;42.17;;;;;;;-3.30;85.84;101403.22;2075082;28;20709;-72
2022/03/19 01:32:18;;;;;;;88.30;43.00;;;;;;;-3.34;85.76;101396.63;2075641;28;20206;-71
2022/03/19 01:33:28;;;;;;;88.18;42.85;;;;;;;-3.36;86.05;101397.75;2082522;28;20303;-71
2022/03/19 01:34:33;;;;;;;83.97;41.42;;;;;;;-3.36;85.81;101400.34;2082842;28;20253;-71
2022/03/19 01:35:35;;;;;;;92.38;42.22;;;;;;;-3.38;86.05;101400.50;2083194;28;20546;-71
2022/03/19 01:36:41;;;;;;;75.95;40.05;;;;;;;-3.39;86.11;101409.28;2082764;28;20230;-71
2022/03/19 01:37:48;;;;;;;92.35;41.97;;;;;;;-3.41;85.93;101404.22;2083024;28;20194;-71
2022/03/19 01:38:54;;;;;;;78.25;42.20;;;;;;;-3.39;86.19;101403.25;2082291;28;20199;-71
2022/03/19 01:40:00;;;;;;;97.45;42.90;;;;;;;-3.38;86.01;101405.72;2082510;28;20204;-70
2022/03/19 01:41:03;;;;;;;85.53;42.05;;;;;;;-3.36;86.21;101397.75;2082517;28;20227;-70
2022/03/19 01:42:07;;;;;;;87.72;41.75;;;;;;;-3.36;86.00;101403.78;2083308;28;20246;-70
2022/03/19 01:43:15;;;;;;;86.85;44.05;;;;;;;-3.37;85.77;101399.53;2082808;28;20203;-70
2022/03/19 01:44:24;;;;;;;78.70;44.05;;;;;;;-3.34;85.54;101401.84;2074798;28;20334;-70
2022/03/19 01:45:29;;;;;;;86.90;42.78;;;;;;;-3.39;85.26;101396.22;2082619;28;20192;-71
2022/03/19 01:46:57;;;;;;;85.43;43.47;;;;;;;-3.32;85.44;101409.53;2083018;28;20658;-70
2022/03/19 01:48:02;;;;;;;99.68;43.67;;;;;;;-3.32;85.22;101409.53;2082214;28;20299;-71
2022/03/19 01:49:06;;;;;;;96.10;43.03;;;;;;;-3.36;84.99;101398.56;2082690;28;20266;-71
2022/03/19 01:50:10;;;;;;;88.90;43.88;;;;;;;-3.35;84.87;101394.97;2082530;28;20195;-71
2022/03/19 01:51:13;;;;;;;78.95;42.60;;;;;;;-3.37;85.48;101396.09;2081989;28;20251;-70
2022/03/19 01:52:21;;;;;;;83.63;43.20;;;;;;;-3.39;85.09;101401.44;2082920;28;20609;-70
2022/03/19 01:53:27;;;;;;;80.93;42.70;;;;;;;-3.43;85.21;101392.28;2082790;28;20192;-71
2022/03/19 01:54:36;;;;;;;81.75;41.83;;;;;;;-3.44;85.53;101388.03;2082532;28;20203;-71
2022/03/19 01:55:39;;;;;;;89.05;43.67;;;;;;;-3.46;85.82;101382.97;2082608;28;20622;-70
2022/03/19 01:56:42;;;;;;;85.63;44.33;;;;;;;-3.48;85.86;101379.66;2082644;28;20207;-70
2022/03/19 01:57:55;;;;;;;88.82;43.55;;;;;;;-3.51;86.61;101382.59;2074243;28;20192;-70
2022/03/19 01:58:57;;;;;;;80.32;42.85;;;;;;;-3.54;87.14;101382.88;2082418;28;20302;-70
2022/03/19 02:00:05;;;;;;;89.88;42.83;;;;;;;-3.55;87.40;101383.84;2082870;28;20187;-70
2022/03/19 02:01:19;;;;;;;94.50;43.70;;;;;;;-3.55;88.15;101383.84;2082965;28;20267;-70
2022/03/19 02:02:25;;;;;;;86.60;42.88;;;;;;;-3.55;88.96;101380.44;2082974;28;20176;-70
2022/03/19 02:03:29;;;;;;;97.40;44.50;;;;;;;-3.50;89.21;101376.38;2082260;28;20238;-70
2022/03/19 02:04:34;;;;;;;85.43;42.72;;;;;;;-3.43;88.08;101381.84;2082463;28;20249;-70
2022/03/19 02:05:44;;;;;;;96.25;44.13;;;;;;;-3.44;88.09;101383.63;2082210;28;20697;-70
2022/03/19 02:06:55;;;;;;;89.70;42.38;;;;;;;-3.38;87.59;101384.84;2081695;28;20604;-70
2022/03/19 02:07:57;;;;;;;86.22;42.33;;;;;;;-3.34;87.39;101393.19;2075285;28;20348;-70
2022/03/19 02:09:01;;;;;;;86.10;43.25;;;;;;;-3.38;86.68;101390.06;2082270;28;20259;-71
2022/03/19 02:10:07;;;;;;;91.80;43.63;;;;;;;-3.39;86.43;101385.78;2082899;28;20195;-70
2022/03/19 02:11:09;;;;;;;90.68;44.75;;;;;;;-3.40;86.32;101391.97;2082904;28;20560;-71
2022/03/19 02:12:15;;;;;;;86.68;43.58;;;;;;;-3.39;86.46;101387.59;2082855;28;20253;-70
2022/03/19 02:13:24;;;;;;;89.57;44.13;;;;;;;-3.39;86.43;101387.59;2082774;28;20203;-71
2022/03/19 02:14:31;;;;;;;94.90;43.38;;;;;;;-3.42;86.71;101392.13;2082949;28;20187;-70
2022/03/19 02:15:38;;;;;;;90.28;44.38;;;;;;;-3.45;86.14;101397.66;2082358;28;20215;-70
2022/03/19 02:16:47;;;;;;;86.60;43.17;;;;;;;-3.45;86.65;101399.44;2082540;28;20183;-71
2022/03/19 02:17:51;;;;;;;87.20;43.50;;;;;;;-3.46;86.18;101398.63;2083032;28;20645;-70
2022/03/19 02:18:57;;;;;;;92.85;44.55;;;;;;;-3.48;86.33;101392.72;2082272;28;20234;-70
2022/03/19 02:20:06;;;;;;;91.80;43.97;;;;;;;-3.48;86.21;101400.53;2074872;28;20200;-70
2022/03/19 02:21:11;;;;;;;93.40;44.70;;;;;;;-3.49;86.35;101395.47;2081869;28;20251;-70
2022/03/19 02:22:13;;;;;;;88.18;43.97;;;;;;;-3.52;86.23;101399.22;2074651;28;20204;-70
2022/03/19 02:26:37;;;;;;;88.13;42.67;;;;;;;-3.60;86.43;101396.50;2037687;29;20562;-70
2022/03/19 02:27:42;;;;;;;90.45;42.65;;;;;;;-3.61;86.08;101397.47;2034347;29;20204;-71
2022/03/19 02:28:50;;;;;;;88.10;44.05;;;;;;;-3.65;86.52;101392.69;2037072;28;20600;-70
2022/03/19 02:29:56;;;;;;;91.38;43.05;;;;;;;-3.65;87.02;101393.50;2050001;28;20215;-70
2022/03/19 02:31:02;;;;;;;99.78;43.83;;;;;;;-3.64;87.29;101400.38;2075702;28;20227;-70
2022/03/19 02:32:06;;;;;;;89.68;43.17;;;;;;;-3.66;87.65;101391.88;2082041;28;20261;-71
2022/03/19 02:33:18;;;;;;;89.10;43.83;;;;;;;-3.65;87.58;101395.28;2073865;28;20216;-70
2022/03/19 02:34:23;;;;;;;88.78;43.10;;;;;;;-3.67;87.84;101394.63;2081901;28;20696;-71
2022/03/19 02:35:27;;;;;;;99.45;46.53;;;;;;;-3.68;88.22;101391.19;2074345;28;20283;-71
2022/03/19 02:36:34;;;;;;;90.75;44.13;;;;;;;-3.65;88.43;101390.06;2081757;28;20241;-70
2022/03/19 02:37:46;;;;;;;89.88;44.25;;;;;;;-3.66;88.30;101393.66;2082231;28;20199;-70
2022/03/19 02:38:51;;;;;;;89.50;43.25;;;;;;;-3.66;88.03;101397.06;2082104;28;20192;-70
2022/03/19 02:39:54;;;;;;;92.88;44.88;;;;;;;-3.67;88.04;101397.22;2082281;28;20227;-70
2022/03/19 02:40:55;;;;;;;84.40;44.53;;;;;;;-3.70;88.25;101387.91;2082037;28;20237;-70
2022/03/19 02:42:00;;;;;;;92.47;44.20;;;;;;;-3.69;88.73;101392.16;2082145;28;20203;-70
2022/03/19 02:43:05;;;;;;;102.95;46.83;;;;;;;-3.69;88.65;101389.56;2082468;28;20723;-71
2022/03/19 02:44:13;;;;;;;95.05;45.35;;;;;;;-3.71;88.21;101388.88;2082006;28;20357;-70
2022/03/19 02:45:17;;;;;;;93.45;44.75;;;;;;;-3.71;88.77;101394.94;2082710;28;20176;-70
2022/03/19 02:46:19;;;;;;;85.35;44.03;;;;;;;-3.72;88.69;101393.28;2081899;28;20233;-70
2022/03/19 02:47:28;;;;;;;87.23;45.27;;;;;;;-3.74;88.58;101392.59;2073732;28;20196;-70
2022/03/19 02:48:34;;;;;;;94.03;43.53;;;;;;;-3.75;88.55;101388.34;2081989;28;20422;-70
2022/03/19 02:49:43;;;;;;;91.95;44.90;;;;;;;-3.77;88.65;101386.84;2082516;28;20188;-70
2022/03/19 02:50:54;;;;;;;93.35;43.38;;;;;;;-3.79;88.52;101388.78;2082020;28;20232;-71
2022/03/19 02:52:02;;;;;;;90.13;44.05;;;;;;;-3.80;89.04;101384.53;2081836;28;20200;-70
2022/03/19 02:53:04;;;;;;;91.18;43.10;;;;;;;-3.85;89.50;101391.97;2081998;28;20175;-70
2022/03/19 02:54:19;;;;;;;87.15;44.75;;;;;;;-3.85;89.77;101386.75;2082500;28;20187;-70
2022/03/19 02:55:24;;;;;;;89.38;44.25;;;;;;;-3.88;90.34;101387.88;2082495;28;20194;-70
2022/03/19 02:56:33;;;;;;;88.30;43.30;;;;;;;-3.91;90.48;101385.56;2082053;28;20204;-70
2022/03/19 02:57:38;;;;;;;112.25;45.70;;;;;;;-3.91;90.98;101389.94;2081965;28;20576;-70
2022/03/19 02:58:43;;;;;;;87.47;43.80;;;;;;;-3.92;91.51;101388.28;2081596;28;20219;-70
2022/03/19 02:59:48;;;;;;;91.35;43.60;;;;;;;-3.96;91.27;101373.91;2074441;28;20742;-70
2022/03/19 03:00:50;;;;;;;85.95;43.70;;;;;;;-3.95;91.76;101392.00;2081994;28;20200;-70
2022/03/19 03:01:56;;;;;;;90.88;44.67;;;;;;;-3.96;91.82;101389.56;2081885;28;20199;-70
2022/03/19 03:02:59;;;;;;;97.18;44.03;;;;;;;-3.98;91.90;101381.88;2081668;28;20208;-70
2022/03/19 03:04:03;;;;;;;97.03;47.22;;;;;;;-4.01;92.34;101382.16;2081865;28;20187;-70
2022/03/19 03:05:14;;;;;;;89.20;43.42;;;;;;;-4.01;93.64;101376.94;2081332;28;20662;-70
2022/03/19 03:06:20;;;;;;;99.55;45.38;;;;;;;-4.04;94.81;101383.28;2081277;28;20267;-70
2022/03/19 03:07:22;;;;;;;108.88;44.90;;;;;;;-4.00;96.15;101374.22;2081615;28;20196;-70
2022/03/19 03:08:32;;;;;;;93.45;45.03;;;;;;;-3.99;96.33;101377.63;2082047;28;20215;-70
2022/03/19 03:09:43;;;;;;;99.95;46.58;;;;;;;-3.99;96.27;101381.06;2074577;28;20254;-70
2022/03/19 03:10:55;;;;;;;95.90;45.20;;;;;;;-3.97;96.39;101382.69;2081997;28;20569;-70
2022/03/19 03:11:59;;;;;;;98.47;45.45;;;;;;;-3.97;95.86;101387.91;2081617;28;20199;-70
2022/03/19 03:13:05;;;;;;;93.13;43.80;;;;;;;-3.99;95.54;101381.06;2081757;28;20219;-70
2022/03/19 03:14:08;;;;;;;92.45;44.90;;;;;;;-3.97;96.02;101383.53;2082333;28;20553;-70
2022/03/19 03:15:14;;;;;;;92.68;45.13;;;;;;;-4.00;95.81;101379.44;2082520;28;20188;-70
2022/03/19 03:16:19;;;;;;;84.38;42.72;;;;;;;-3.97;97.31;101383.53;2081683;28;20199;-70
2022/03/19 03:17:24;;;;;;;92.97;44.15;;;;;;;-3.96;97.41;101389.56;2081881;28;20277;-70
2022/03/19 03:18:33;;;;;;;81.68;42.33;;;;;;;-3.98;97.00;101394.91;2082123;28;20666;-70
2022/03/19 03:19:42;;;;;;;96.60;46.05;;;;;;;-4.00;96.81;101384.63;2081586;28;20253;-70
2022/03/19 03:20:43;;;;;;;91.80;43.60;;;;;;;-4.01;97.47;101385.56;2081740;28;20290;-70
2022/03/19 03:21:48;;;;;;;94.43;44.73;;;;;;;-4.04;97.53;101382.44;2081901;28;20224;-70
2022/03/19 03:22:55;;;;;;;91.05;44.50;;;;;;;-4.03;97.37;101374.47;2082422;28;20623;-70
2022/03/19 03:24:02;;;;;;;90.75;42.08;;;;;;;-4.00;97.33;101386.41;2082340;28;20172;-70
2022/03/19 03:25:11;;;;;;;91.78;41.63;;;;;;;-4.01;98.07;101376.94;2082529;28;20229;-70
2022/03/19 03:26:14;;;;;;;85.30;42.17;;;;;;;-3.99;98.27;101381.06;2082206;28;20191;-70
2022/03/19 03:27:18;;;;;;;84.25;41.03;;;;;;;-3.99;97.78;101378.47;2081757;28;20234;-70
2022/03/19 03:28:20;;;;;;;76.32;40.40;;;;;;;-3.97;97.42;101378.31;2081534;28;20199;-70
2022/03/19 03:29:21;;;;;;;86.93;41.70;;;;;;;-3.98;97.25;101379.28;2081844;28;20203;-70
2022/03/19 03:30:27;;;;;;;84.03;42.17;;;;;;;-3.99;97.33;101375.84;2073674;28;20200;-70
2022/03/19 03:31:31;;;;;;;89.03;42.92;;;;;;;-4.03;97.22;101371.06;2081818;28;20187;-70
2022/03/19 03:32:35;;;;;;;85.65;42.30;;;;;;;-4.03;97.56;101387.50;2081680;28;20234;-70
2022/03/19 03:33:39;;;;;;;90.43;43.83;;;;;;;-4.03;97.08;101379.69;2073653;28;20238;-70
2022/03/19 03:34:43;;;;;;;84.30;43.80;;;;;;;-4.06;96.96;101379.16;2074269;28;20224;-70
2022/03/19 03:35:46;;;;;;;90.85;43.63;;;;;;;-4.09;97.21;101380.25;2081726;28;20591;-70
2022/03/19 03:36:50;;;;;;;99.82;44.65;;;;;;;-4.10;97.76;101377.81;2081846;28;20219;-70
2022/03/19 03:37:58;;;;;;;96.35;44.90;;;;;;;-4.15;97.72;101375.63;2081805;28;20199;-70
2022/03/19 03:39:01;;;;;;;90.40;44.10;;;;;;;-4.17;97.97;101376.72;2081781;28;20211;-70
2022/03/19 03:40:15;;;;;;;88.85;43.88;;;;;;;-4.19;98.03;101383.88;2082117;28;20196;-71
2022/03/19 03:41:20;;;;;;;92.53;44.20;;;;;;;-4.20;98.32;101380.44;2081956;28;20271;-70
2022/03/19 03:42:24;;;;;;;94.07;43.72;;;;;;;-4.20;98.52;101384.84;2074246;28;20291;-71
2022/03/19 03:43:26;;;;;;;88.80;43.95;;;;;;;-4.20;98.54;101377.84;2081597;28;20194;-70
2022/03/19 03:44:32;;;;;;;85.05;42.28;;;;;;;-4.23;98.11;101383.34;2081986;28;20228;-70
2022/03/19 03:45:38;;;;;;;87.63;42.35;;;;;;;-4.20;98.33;101384.84;2081736;28;20211;-70
2022/03/19 03:46:45;;;;;;;95.72;43.47;;;;;;;-4.20;98.06;101383.06;2081627;28;20725;-70
2022/03/19 03:47:54;;;;;;;93.55;43.38;;;;;;;-4.21;97.97;101384.03;2081456;28;20828;-70
2022/03/19 03:48:56;;;;;;;89.28;44.42;;;;;;;-4.23;97.75;101380.75;2081785;28;20626;-70
2022/03/19 03:50:00;;;;;;;86.55;43.88;;;;;;;-4.23;97.79;101388.56;2081660;28;20204;-71
2022/03/19 03:51:04;;;;;;;90.82;43.80;;;;;;;-4.23;97.57;101385.13;2081144;28;20188;-70
2022/03/19 03:52:12;;;;;;;89.78;44.78;;;;;;;-4.24;97.48;101380.88;2082154;28;20186;-70
2022/03/19 03:53:17;;;;;;;79.85;42.90;;;;;;;-4.24;97.64;101384.31;2082403;28;20507;-70
2022/03/19 03:54:27;;;;;;;89.25;42.80;;;;;;;-4.27;97.55;101389.78;2081793;28;20238;-70
2022/03/19 03:55:40;;;;;;;96.13;44.45;;;;;;;-4.29;97.83;101389.13;2081582;28;20195;-70
2022/03/19 03:56:41;;;;;;;90.13;43.53;;;;;;;-4.31;97.75;101393.66;2081730;28;20294;-70
2022/03/19 03:57:43;;;;;;;83.57;43.05;;;;;;;-4.37;97.70;101379.41;2073362;28;20196;-70
2022/03/19 03:58:56;;;;;;;104.32;45.92;;;;;;;-4.37;97.84;101386.41;2073232;28;20204;-70
2022/03/19 04:00:05;;;;;;;86.70;44.40;;;;;;;-4.41;98.26;101385.03;2075212;28;20200;-70
2022/03/19 04:01:19;;;;;;;95.45;44.10;;;;;;;-4.43;98.70;101381.75;2081705;28;20184;-70
2022/03/19 04:02:27;;;;;;;86.30;42.55;;;;;;;-4.44;98.76;101382.72;2082052;28;20279;-70
2022/03/19 04:03:31;;;;;;;92.72;44.15;;;;;;;-4.47;98.75;101385.59;2081613;28;20234;-70
2022/03/19 04:04:32;;;;;;;91.88;45.90;;;;;;;-4.48;98.71;101384.78;2073630;28;20725;-70
2022/03/19 04:05:34;;;;;;;91.33;43.97;;;;;;;-4.49;98.65;101383.16;2073239;28;20666;-72
2022/03/19 04:06:38;;;;;;;104.75;46.80;;;;;;;-4.51;98.93;101377.25;2081152;28;20847;-70
2022/03/19 04:07:46;;;;;;;93.68;45.67;;;;;;;-4.53;98.83;101384.38;2081995;28;20533;-70
2022/03/19 04:08:55;;;;;;;82.53;42.65;;;;;;;-4.52;98.89;101387.78;2082241;28;20176;-70
2022/03/19 04:10:08;;;;;;;91.88;44.92;;;;;;;-4.55;98.90;101386.31;2082017;28;20240;-70
2022/03/19 04:11:13;;;;;;;89.10;43.67;;;;;;;-4.59;99.12;101388.38;2081999;28;20188;-70
2022/03/19 04:12:16;;;;;;;94.78;45.08;;;;;;;-4.60;99.18;101386.75;2081692;28;20286;-70
2022/03/19 04:13:23;;;;;;;91.72;45.13;;;;;;;-4.63;99.59;101387.00;2081387;28;20278;-70
2022/03/19 04:14:32;;;;;;;85.32;43.50;;;;;;;-4.63;99.32;101392.19;2082286;28;20209;-70
2022/03/19 04:15:40;;;;;;;87.78;45.15;;;;;;;-4.65;99.30;101394.13;2082050;28;20198;-70
2022/03/19 04:16:47;;;;;;;92.63;45.35;;;;;;;-4.67;99.28;101390.84;2082358;28;20211;-70
2022/03/19 04:17:50;;;;;;;97.28;43.03;;;;;;;-4.69;99.40;101391.94;2082906;28;20207;-70
2022/03/19 04:18:53;;;;;;;86.53;42.10;;;;;;;-4.71;99.76;101389.47;2083154;28;20191;-70
2022/03/19 04:19:56;;;;;;;88.10;44.00;;;;;;;-4.73;99.72;101396.59;2083735;28;20199;-70
2022/03/19 04:21:04;;;;;;;91.43;45.58;;;;;;;-4.76;100.00;101383.88;2082688;28;20200;-70
2022/03/19 04:22:10;;;;;;;97.35;45.78;;;;;;;-4.79;100.00;101386.75;2076108;28;20204;-70
2022/03/19 04:23:18;;;;;;;93.43;46.53;;;;;;;-4.79;100.00;101393.72;2075349;28;20200;-70
2022/03/19 04:24:28;;;;;;;90.43;46.58;;;;;;;-4.82;100.00;101397.44;2083323;28;20218;-70
2022/03/19 04:25:30;;;;;;;89.82;44.92;;;;;;;-4.86;100.00;101391.69;2083340;28;20274;-70
2022/03/19 04:26:35;;;;;;;96.22;45.05;;;;;;;-4.87;100.00;101389.22;2083672;28;20194;-70
2022/03/19 04:27:40;;;;;;;89.13;47.30;;;;;;;-4.91;100.00;101390.47;2083794;28;20221;-70
2022/03/19 04:28:46;;;;;;;105.40;48.17;;;;;;;-4.92;100.00;101389.63;2083781;28;20195;-70
2022/03/19 04:29:49;;;;;;;96.75;46.17;;;;;;;-4.93;100.00;101395.00;2083199;28;20290;-70
2022/03/19 04:30:56;;;;;;;94.47;47.60;;;;;;;-4.97;100.00;101388.41;2075268;28;20196;-70
2022/03/19 04:31:58;;;;;;;96.53;47.38;;;;;;;-4.99;100.00;101395.53;2082863;28;20195;-70
2022/03/19 04:33:04;;;;;;;94.88;47.00;;;;;;;-4.99;100.00;101398.13;2082981;28;20207;-70
2022/03/19 04:34:08;;;;;;;100.47;48.58;;;;;;;-4.99;100.00;101398.13;2083150;28;20689;-71
2022/03/19 04:36:38;;;;;;;98.07;45.92;;;;;;;-5.03;100.00;101402.81;2083217;28;20373;-70
2022/03/19 04:37:41;;;;;;;103.20;49.78;;;;;;;-5.02;100.00;101403.63;2083774;28;20203;-71
2022/03/19 04:38:45;;;;;;;100.22;47.67;;;;;;;-5.04;100.00;101406.34;2083128;28;20200;-70
2022/03/19 04:39:46;;;;;;;99.85;48.97;;;;;;;-5.04;100.00;101408.13;2074659;28;20319;-70
2022/03/19 04:40:54;;;;;;;106.53;50.45;;;;;;;-5.06;100.00;101397.03;2074753;28;20200;-70
2022/03/19 04:41:57;;;;;;;101.55;49.65;;;;;;;-5.10;100.00;101400.88;2083030;28;20203;-70
2022/03/19 04:43:01;;;;;;;102.53;49.15;;;;;;;-5.11;100.00;101405.25;2083186;28;20231;-70
2022/03/19 04:44:07;;;;;;;97.82;47.40;;;;;;;-5.17;100.00;101396.22;2082637;28;20202;-71
2022/03/19 04:45:13;;;;;;;110.20;48.03;;;;;;;-5.15;100.00;101399.50;2083421;28;20207;-70
2022/03/19 04:46:20;;;;;;;94.13;47.33;;;;;;;-5.18;100.00;101402.38;2075453;28;20200;-70
2022/03/19 04:47:23;;;;;;;99.10;50.50;;;;;;;-5.20;100.00;101404.28;2082840;28;20290;-71
2022/03/19 04:48:30;;;;;;;97.65;48.22;;;;;;;-5.18;100.00;101414.56;2074921;28;20228;-70
2022/03/19 04:49:31;;;;;;;102.30;48.65;;;;;;;-5.20;100.00;101409.50;2082974;28;20172;-71
2022/03/19 04:50:43;;;;;;;106.40;48.63;;;;;;;-5.21;100.00;101418.28;2083471;28;20647;-70
2022/03/19 04:51:54;;;;;;;97.60;47.83;;;;;;;-5.22;100.00;101419.19;2083047;28;20689;-71
2022/03/19 04:52:57;;;;;;;94.18;47.65;;;;;;;-5.23;100.00;101414.13;2083016;28;20297;-71
2022/03/19 04:54:02;;;;;;;101.65;51.08;;;;;;;-5.22;100.00;101415.78;2075214;28;20243;-71
2022/03/19 04:55:06;;;;;;;105.70;49.25;;;;;;;-5.23;100.00;101420.16;2082868;28;20650;-71
2022/03/19 04:56:13;;;;;;;102.53;48.80;;;;;;;-5.24;100.00;101418.53;2083139;28;20287;-71
2022/03/19 04:57:20;;;;;;;99.80;48.65;;;;;;;-5.22;100.00;101416.59;2083164;28;20215;-70
2022/03/19 04:58:27;;;;;;;100.72;49.83;;;;;;;-5.21;100.00;101405.25;2083425;28;20206;-70
2022/03/19 04:59:30;;;;;;;104.25;50.42;;;;;;;-5.22;100.00;101406.19;2083350;28;20678;-71
2022/03/19 05:00:33;;;;;;;98.75;50.10;;;;;;;-5.23;100.00;101409.75;2083155;28;20203;-71
2022/03/19 05:01:34;;;;;;;108.45;50.40;;;;;;;-5.24;100.00;101408.13;2083026;28;20199;-71
2022/03/19 05:02:38;;;;;;;108.75;50.05;;;;;;;-5.28;100.00;101406.75;2082913;28;20282;-71